Time;durP1;ratioP1;P1;durP2;ratioP2;P2;SDS_P1;SDS_P2;PMS_P1;PMS_P2;Temp;Humidity;BMP_temperature;BMP_pressure;BME280_temperature;BME280_humidity;BME280_pressure;Samples;Min_cycle;Max_cycle;Signal;HPM_P1;HPM_P2
2023/01/16 00:01:09;;;;;;;;;;;;;;;5.52;92.90;99513.00;5094212;28;20151;-78
2023/01/16 00:03:34;;;;;;;;;;;;;;;5.52;92.68;99520.78;5095966;28;19919;-78
2023/01/16 00:05:59;;;;;;;;;;;;;;;5.52;92.78;99519.97;5096212;28;19912;-78
2023/01/16 00:08:24;;;;;;;;;;;;;;;5.50;92.50;99503.59;5095853;28;20115;-78
2023/01/16 00:10:50;;;;;;;;;;;;;;;5.49;92.56;99500.13;5096831;28;20162;-78
2023/01/16 00:13:15;;;;;;;;;;;;;;;5.48;92.59;99488.06;5097082;28;20045;-78
2023/01/16 00:15:45;;;;;;;;;;;;;;;5.48;92.79;99487.25;5096719;28;19916;-78
2023/01/16 00:18:10;;;;;;;;;;;;;;;5.46;92.85;99482.09;5097368;28;19923;-78
2023/01/16 00:20:35;;;;;;;;;;;;;;;5.48;92.96;99479.47;5095599;28;19987;-78
2023/01/16 00:23:01;;;;;;;;;;;;;;;5.47;93.16;99485.53;5096118;28;19912;-78
2023/01/16 00:25:26;;;;;;;;;;;;;;;5.47;93.20;99475.16;5097537;28;19983;-78
2023/01/16 00:27:51;;;;;;;;;;;;;;;5.47;93.24;99478.59;5097456;28;20140;-78
2023/01/16 00:30:16;;;;;;;;;;;;;;;5.47;93.20;99476.00;5097464;28;19912;-78
2023/01/16 00:32:42;;;;;;;;;;;;;;;5.48;93.31;99474.25;5097391;28;19912;-78
2023/01/16 00:35:07;;;;;;;;;;;;;;;5.46;93.19;99471.72;5097449;28;19919;-78
2023/01/16 00:37:32;;;;;;;;;;;;;;;5.47;92.97;99469.97;5096838;28;19974;-78
2023/01/16 00:39:58;;;;;;;;;;;;;;;5.46;93.04;99465.69;5097485;28;19935;-78
2023/01/16 00:42:23;;;;;;;;;;;;;;;5.44;92.97;99450.19;5097336;28;19951;-78
2023/01/16 00:44:48;;;;;;;;;;;;;;;5.46;93.05;99452.72;5097153;28;19927;-78
2023/01/16 00:47:14;;;;;;;;;;;;;;;5.44;93.02;99444.13;5097141;28;19920;-78
2023/01/16 00:49:39;;;;;;;;;;;;;;;5.43;92.93;99434.66;5097368;28;19920;-78
2023/01/16 00:52:05;;;;;;;;;;;;;;;5.43;92.92;99429.47;5097582;28;19943;-78
2023/01/16 00:54:30;;;;;;;;;;;;;;;5.42;93.12;99422.56;5097176;28;19939;-78
2023/01/16 00:56:55;;;;;;;;;;;;;;;5.42;93.00;99417.38;5097033;28;19924;-78
2023/01/16 00:59:20;;;;;;;;;;;;;;;5.41;93.22;99415.72;5078879;28;19912;-78
2023/01/16 01:01:46;;;;;;;;;;;;;;;5.39;93.27;99406.22;5096966;28;19908;-78
2023/01/16 01:04:12;;;;;;;;;;;;;;;5.41;93.25;99397.53;5097236;28;19912;-78
2023/01/16 01:06:37;;;;;;;;;;;;;;;5.39;93.35;99395.00;5096794;28;19939;-78
2023/01/16 01:09:03;;;;;;;;;;;;;;;5.38;93.52;99382.91;5097208;28;20196;-78
2023/01/16 01:11:28;;;;;;;;;;;;;;;5.39;93.68;99384.59;5096964;28;19924;-78
2023/01/16 01:13:53;;;;;;;;;;;;;;;5.38;93.93;99377.72;5097098;28;20108;-78
2023/01/16 01:16:18;;;;;;;;;;;;;;;5.39;93.95;99376.81;5096892;28;19916;-78
2023/01/16 01:18:44;;;;;;;;;;;;;;;5.38;93.91;99370.78;5096904;28;19912;-78
2023/01/16 01:21:09;;;;;;;;;;;;;;;5.39;94.11;99356.06;5097217;28;19924;-78
2023/01/16 01:23:35;;;;;;;;;;;;;;;5.39;94.10;99361.25;5096399;28;19935;-78
2023/01/16 01:26:14;;;;;;;;;;;;;;;5.38;94.13;99346.56;5097001;28;19962;-78
2023/01/16 01:28:40;;;;;;;;;;;;;;;5.38;93.83;99341.38;5095542;28;19982;-78
2023/01/16 01:31:06;;;;;;;;;;;;;;;5.38;93.93;99330.97;5095923;28;20267;-78
2023/01/16 01:33:32;;;;;;;;;;;;;;;5.37;94.04;99327.56;5096964;28;19923;-78
2023/01/16 01:35:57;;;;;;;;;;;;;;;5.37;94.09;99326.72;5097099;28;19924;-78
2023/01/16 01:38:22;;;;;;;;;;;;;;;5.37;93.97;99324.13;5096760;28;19919;-78
2023/01/16 01:40:48;;;;;;;;;;;;;;;5.36;94.07;99315.47;5096613;28;19912;-78
2023/01/16 01:43:14;;;;;;;;;;;;;;;5.36;94.03;99302.50;5096772;28;19915;-78
2023/01/16 01:45:40;;;;;;;;;;;;;;;5.36;93.79;99286.06;5096642;28;19908;-78
2023/01/16 01:48:11;;;;;;;;;;;;;;;5.35;94.02;99300.81;5100280;28;19908;-78
2023/01/16 01:50:43;;;;;;;;;;;;;;;5.37;94.29;99290.38;5098725;28;20088;-78
2023/01/16 01:53:15;;;;;;;;;;;;;;;5.36;94.37;99278.28;5100436;28;20127;-78
2023/01/16 01:55:42;;;;;;;;;;;;;;;5.36;94.45;99278.28;5100117;28;20211;-78
2023/01/16 01:58:07;;;;;;;;;;;;;;;5.35;94.42;99276.63;5099052;28;19920;-78
2023/01/16 02:00:33;;;;;;;;;;;;;;;5.35;94.37;99267.06;5098372;28;19935;-78
2023/01/16 02:02:58;;;;;;;;;;;;;;;5.35;94.69;99266.22;5100301;28;19983;-78
2023/01/16 02:05:26;;;;;;;;;;;;;;;5.35;94.58;99263.63;5098988;28;19923;-78
2023/01/16 02:07:52;;;;;;;;;;;;;;;5.36;94.92;99265.31;5099676;28;19988;-78
2023/01/16 02:10:36;;;;;;;;;;;;;;;5.35;94.93;99255.84;5100002;28;20002;-78
2023/01/16 02:13:02;;;;;;;;;;;;;;;5.34;94.83;99249.78;5099776;28;19916;-78
2023/01/16 02:15:28;;;;;;;;;;;;;;;5.35;94.88;99253.25;5099667;28;19944;-78
2023/01/16 02:20:52;;;;;;;;;;;;;;;5.33;94.68;99240.34;5098268;28;20111;-78
2023/01/16 02:23:34;;;;;;;;;;;;;;;5.33;94.85;99240.34;5099561;28;20141;-78
2023/01/16 02:26:17;;;;;;;;;;;;;;;5.33;95.11;99237.75;5099887;28;19908;-78
2023/01/16 02:29:01;;;;;;;;;;;;;;;5.33;94.95;99237.75;5099587;28;20292;-78
2023/01/16 02:31:32;;;;;;;;;;;;;;;5.33;94.94;99221.31;5099340;28;20107;-78
2023/01/16 02:33:57;;;;;;;;;;;;;;;5.33;95.06;99213.50;5098597;28;19923;-78
2023/01/16 02:36:37;;;;;;;;;;;;;;;5.33;95.14;99208.31;5099382;28;19920;-78
2023/01/16 02:39:20;;;;;;;;;;;;;;;5.33;95.13;99200.53;5099233;28;19916;-78
2023/01/16 02:41:50;;;;;;;;;;;;;;;5.33;95.19;99188.41;5099179;28;19920;-78
2023/01/16 02:44:28;;;;;;;;;;;;;;;5.34;95.16;99186.66;5099355;28;20250;-78
2023/01/16 02:47:12;;;;;;;;;;;;;;;5.33;95.07;99170.25;5099370;28;19908;-78
2023/01/16 02:49:37;;;;;;;;;;;;;;;5.34;95.32;99168.47;5097383;28;19931;-78
2023/01/16 02:52:17;;;;;;;;;;;;;;;5.34;95.10;99163.28;5098104;28;19908;-78
2023/01/16 02:54:46;;;;;;;;;;;;;;;5.34;95.17;99147.72;5098841;28;20069;-78
2023/01/16 02:57:17;;;;;;;;;;;;;;;5.34;95.49;99132.97;5099074;28;20030;-78
2023/01/16 02:59:42;;;;;;;;;;;;;;;5.34;95.67;99132.16;5078941;28;19956;-78
2023/01/16 03:02:08;;;;;;;;;;;;;;;5.33;95.76;99123.53;5079133;28;19990;-78
2023/01/16 03:04:39;;;;;;;;;;;;;;;5.33;95.68;99125.25;5078340;28;19973;-78
2023/01/16 03:07:10;;;;;;;;;;;;;;;5.32;95.69;99119.22;5077724;28;19948;-78
2023/01/16 03:09:41;;;;;;;;;;;;;;;5.32;95.77;99127.00;5078140;28;19908;-78
2023/01/16 03:12:18;;;;;;;;;;;;;;;5.32;95.80;99119.22;5077377;28;19916;-78
2023/01/16 03:14:44;;;;;;;;;;;;;;;5.31;95.83;99109.78;5078869;28;20391;-78
2023/01/16 03:17:32;;;;;;;;;;;;;;;5.32;95.87;99110.63;5078649;28;19927;-78
2023/01/16 03:20:12;;;;;;;;;;;;;;;5.31;95.91;99091.59;5069019;28;19912;-78
2023/01/16 03:22:49;;;;;;;;;;;;;;;5.31;95.95;99088.16;5077863;28;19936;-78
2023/01/16 03:25:44;;;;;;;;;;;;;;;5.31;95.93;99083.81;5078086;28;19954;-78
2023/01/16 03:28:18;;;;;;;;;;;;;;;5.32;95.99;99071.69;5069195;28;19916;-78
2023/01/16 03:30:54;;;;;;;;;;;;;;;5.31;96.25;99069.97;5076685;28;19916;-78
2023/01/16 03:33:31;;;;;;;;;;;;;;;5.31;96.03;99060.47;5078619;28;20438;-78
2023/01/16 03:36:01;;;;;;;;;;;;;;;5.31;96.31;99054.41;5078202;28;19919;-78
2023/01/16 03:38:27;;;;;;;;;;;;;;;5.30;96.21;99044.94;5078307;28;19923;-78
2023/01/16 03:40:54;;;;;;;;;;;;;;;5.31;96.24;99038.81;5076721;28;19920;-78
2023/01/16 03:43:23;;;;;;;;;;;;;;;5.30;96.17;99029.38;5078412;28;20135;-78
2023/01/16 03:46:11;;;;;;;;;;;;;;;5.29;96.26;99025.91;5077654;28;20247;-78
2023/01/16 03:48:42;;;;;;;;;;;;;;;5.28;96.36;99006.09;5072094;28;19917;-78
2023/01/16 03:51:09;;;;;;;;;;;;;;;5.28;96.22;99000.91;5077936;28;20103;-78
2023/01/16 03:53:40;;;;;;;;;;;;;;;5.27;96.31;98983.63;5077208;28;19920;-78
2023/01/16 03:56:08;;;;;;;;;;;;;;;5.27;96.39;98978.44;5077770;28;19995;-78
2023/01/16 03:58:36;;;;;;;;;;;;;;;5.28;96.48;98971.50;5077228;28;19923;-78
2023/01/16 04:01:12;;;;;;;;;;;;;;;5.29;96.52;98960.19;5078832;28;19985;-79
2023/01/16 04:03:41;;;;;;;;;;;;;;;5.28;96.57;98948.16;5077176;28;19932;-79
2023/01/16 04:06:14;;;;;;;;;;;;;;;5.29;96.55;98944.63;5078786;28;19917;-79
2023/01/16 04:08:41;;;;;;;;;;;;;;;5.28;96.72;98933.41;5078089;28;20111;-79
2023/01/16 04:11:07;;;;;;;;;;;;;;;5.29;96.58;98929.88;5078086;28;20099;-79
2023/01/16 04:13:35;;;;;;;;;;;;;;;5.28;96.73;98922.19;5077773;28;19920;-79
2023/01/16 04:16:01;;;;;;;;;;;;;;;5.28;96.74;98917.84;5078505;28;19920;-79
2023/01/16 04:18:30;;;;;;;;;;;;;;;5.29;96.88;98918.66;5078729;28;19916;-79
2023/01/16 04:20:55;;;;;;;;;;;;;;;5.28;96.71;98904.03;5078160;28;19908;-79
2023/01/16 04:23:21;;;;;;;;;;;;;;;5.28;96.65;98893.66;5060211;28;20282;-79
2023/01/16 04:25:46;;;;;;;;;;;;;;;5.27;96.96;98876.38;5078324;28;19921;-79
2023/01/16 04:28:11;;;;;;;;;;;;;;;5.28;96.81;98873.72;5077354;28;19920;-79
2023/01/16 04:30:36;;;;;;;;;;;;;;;5.28;96.74;98865.09;5077858;28;20336;-77
2023/01/16 04:33:02;;;;;;;;;;;;;;;5.27;96.84;98855.63;5078543;28;19927;-79
2023/01/16 04:35:27;;;;;;;;;;;;;;;5.26;96.82;98859.97;5078236;28;19924;-79
2023/01/16 04:37:53;;;;;;;;;;;;;;;5.26;96.92;98847.00;5077942;28;19912;-79
2023/01/16 04:40:18;;;;;;;;;;;;;;;5.25;96.85;98840.13;5077823;28;19912;-79
2023/01/16 04:42:43;;;;;;;;;;;;;;;5.25;96.85;98831.50;5076703;28;20243;-79
2023/01/16 04:45:09;;;;;;;;;;;;;;;5.24;96.72;98824.63;5076940;28;19912;-79
2023/01/16 04:47:34;;;;;;;;;;;;;;;5.21;96.09;98807.47;5077466;28;19925;-79
2023/01/16 04:49:59;;;;;;;;;;;;;;;5.21;96.23;98802.28;5076842;28;20108;-79
2023/01/16 04:52:24;;;;;;;;;;;;;;;5.19;96.24;98784.19;5059894;28;20212;-79
2023/01/16 04:54:50;;;;;;;;;;;;;;;5.15;95.47;98780.06;5077572;28;20111;-79
2023/01/16 04:57:15;;;;;;;;;;;;;;;5.14;95.05;98769.75;5077775;28;19924;-79
2023/01/16 04:59:40;;;;;;;;;;;;;;;5.13;95.42;98765.47;5077713;28;20062;-79
2023/01/16 05:02:05;;;;;;;;;;;;;;;5.12;95.72;98754.28;5078192;28;19917;-79
2023/01/16 05:04:31;;;;;;;;;;;;;;;5.11;95.46;98737.03;5077805;28;19912;-79
2023/01/16 05:06:56;;;;;;;;;;;;;;;5.06;94.15;98738.16;5077558;28;19986;-79
2023/01/16 05:09:21;;;;;;;;;;;;;;;5.01;93.84;98722.84;5077499;28;19913;-79
2023/01/16 05:11:47;;;;;;;;;;;;;;;5.00;94.29;98713.38;5059419;28;19955;-79
2023/01/16 05:14:12;;;;;;;;;;;;;;;4.97;94.29;98706.59;5077678;28;19912;-79
2023/01/16 05:16:38;;;;;;;;;;;;;;;4.97;94.37;98703.19;5075715;28;20021;-79
2023/01/16 05:19:04;;;;;;;;;;;;;;;4.94;94.65;98686.00;5077680;28;19948;-79
2023/01/16 05:21:29;;;;;;;;;;;;;;;4.91;94.05;98682.72;5078054;28;19943;-79
2023/01/16 05:23:54;;;;;;;;;;;;;;;4.89;94.41;98675.03;5080632;28;19920;-79
2023/01/16 05:26:19;;;;;;;;;;;;;;;4.85;94.48;98663.13;5081273;28;19966;-79
2023/01/16 05:28:45;;;;;;;;;;;;;;;4.81;94.35;98657.28;5081560;28;19934;-79
2023/01/16 05:31:10;;;;;;;;;;;;;;;4.79;94.30;98647.91;5081190;28;19921;-79
2023/01/16 05:33:35;;;;;;;;;;;;;;;4.77;94.52;98645.41;5079251;28;19912;-79
2023/01/16 05:36:01;;;;;;;;;;;;;;;4.79;94.94;98640.97;5063117;28;19917;-79
2023/01/16 05:38:26;;;;;;;;;;;;;;;4.76;94.96;98630.75;5080985;28;19975;-79
2023/01/16 05:40:51;;;;;;;;;;;;;;;4.74;94.73;98622.19;5080951;28;19924;-79
2023/01/16 05:43:17;;;;;;;;;;;;;;;4.72;94.78;98613.66;5079495;28;19983;-79
2023/01/16 05:45:42;;;;;;;;;;;;;;;4.68;94.53;98612.16;5080300;28;19927;-79
2023/01/16 05:48:07;;;;;;;;;;;;;;;4.67;95.20;98602.69;5079680;28;19913;-79
2023/01/16 05:50:32;;;;;;;;;;;;;;;4.67;95.52;98588.91;5062434;28;19912;-79
2023/01/16 05:52:58;;;;;;;;;;;;;;;4.66;95.84;98593.25;5080590;28;19942;-79
2023/01/16 05:55:23;;;;;;;;;;;;;;;4.68;95.97;98588.00;5080377;28;19909;-79
2023/01/16 05:57:49;;;;;;;;;;;;;;;4.69;96.03;98581.88;5080123;28;19981;-79
2023/01/16 06:00:15;;;;;;;;;;;;;;;4.71;96.41;98570.53;5080800;28;19996;-79
2023/01/16 06:02:40;;;;;;;;;;;;;;;4.73;96.41;98581.66;5080051;28;19975;-79
2023/01/16 06:05:05;;;;;;;;;;;;;;;4.73;96.54;98563.50;5079292;28;20159;-79
2023/01/16 06:07:30;;;;;;;;;;;;;;;4.73;96.39;98560.03;5080100;28;20092;-79
2023/01/16 06:09:56;;;;;;;;;;;;;;;4.73;96.63;98555.72;5079858;28;19950;-79
2023/01/16 06:12:21;;;;;;;;;;;;;;;4.72;96.39;98540.25;5079845;28;19947;-79
2023/01/16 06:14:46;;;;;;;;;;;;;;;4.69;96.23;98540.41;5080315;28;19923;-79
2023/01/16 06:17:15;;;;;;;;;;;;;;;4.69;96.33;98538.63;5080293;28;20127;-79
2023/01/16 06:19:41;;;;;;;;;;;;;;;4.71;96.93;98520.41;5079950;28;19920;-79
2023/01/16 06:22:06;;;;;;;;;;;;;;;4.72;97.13;98515.13;5080176;28;20222;-79
2023/01/16 06:24:32;;;;;;;;;;;;;;;4.73;97.39;98516.81;5088004;28;19912;-79
2023/01/16 06:26:57;;;;;;;;;;;;;;;4.75;97.32;98504.59;5100529;28;20223;-79
2023/01/16 06:29:23;;;;;;;;;;;;;;;4.76;97.21;98498.50;5100284;28;19912;-78
2023/01/16 06:31:48;;;;;;;;;;;;;;;4.78;97.89;98488.03;5099754;28;19983;-79
2023/01/16 06:34:14;;;;;;;;;;;;;;;4.80;97.59;98478.41;5098322;28;20150;-78
2023/01/16 06:36:41;;;;;;;;;;;;;;;4.81;97.60;98467.97;5099990;28;19931;-78
2023/01/16 06:39:06;;;;;;;;;;;;;;;4.81;97.59;98462.78;5099743;28;19920;-78
2023/01/16 06:41:31;;;;;;;;;;;;;;;4.82;97.49;98458.44;5100217;28;19916;-78
2023/01/16 06:43:57;;;;;;;;;;;;;;;4.82;97.83;98445.47;5099635;28;20162;-78
2023/01/16 06:46:22;;;;;;;;;;;;;;;4.83;97.60;98443.72;5099762;28;19912;-78
2023/01/16 06:48:47;;;;;;;;;;;;;;;4.81;97.63;98426.47;5099577;28;19912;-78
2023/01/16 06:51:12;;;;;;;;;;;;;;;4.81;97.57;98423.03;5098742;28;19927;-78
2023/01/16 06:53:37;;;;;;;;;;;;;;;4.76;97.41;98407.72;5099028;28;19920;-78
2023/01/16 06:56:03;;;;;;;;;;;;;;;4.74;97.81;98404.38;5099753;28;19930;-78
2023/01/16 06:58:28;;;;;;;;;;;;;;;4.74;98.05;98404.38;5099834;28;19928;-78
2023/01/16 07:00:54;;;;;;;;;;;;;;;4.71;98.12;98388.16;5099110;28;19912;-78
2023/01/16 07:03:20;;;;;;;;;;;;;;;4.69;98.56;98370.09;5098547;28;19916;-78
2023/01/16 07:05:46;;;;;;;;;;;;;;;4.67;99.04;98358.97;5099433;28;19916;-78
2023/01/16 07:08:11;;;;;;;;;;;;;;;4.65;99.04;98358.22;5099398;28;19943;-78
2023/01/16 07:10:37;;;;;;;;;;;;;;;4.62;98.91;98348.06;5098577;28;19927;-78
2023/01/16 07:13:02;;;;;;;;;;;;;;;4.58;99.22;98339.63;5099370;28;19923;-78
2023/01/16 07:23:47;;;;;;;;;;;;;;;4.43;100.00;98289.44;5098794;28;19961;-78
2023/01/16 07:26:14;;;;;;;;;;;;;;;4.41;100.00;98286.09;5098367;28;20212;-78
2023/01/16 07:28:40;;;;;;;;;;;;;;;4.37;100.00;98276.84;5096623;28;19962;-78
2023/01/16 07:31:06;;;;;;;;;;;;;;;4.32;100.00;98268.50;5092110;28;19917;-78
2023/01/16 07:33:32;;;;;;;;;;;;;;;4.30;100.00;98265.16;5089929;28;19924;-78
2023/01/16 07:35:57;;;;;;;;;;;;;;;4.23;100.00;98254.28;5093229;28;20152;-78
2023/01/16 07:38:22;;;;;;;;;;;;;;;4.20;100.00;98244.13;5092685;28;19974;-78
2023/01/16 07:40:47;;;;;;;;;;;;;;;4.19;100.00;98249.38;5096037;28;19961;-78
2023/01/16 07:43:15;;;;;;;;;;;;;;;4.18;100.00;98234.75;5093792;28;21040;-78
2023/01/16 07:45:40;;;;;;;;;;;;;;;4.15;100.00;98229.75;5094862;28;19923;-78
2023/01/16 07:48:05;;;;;;;;;;;;;;;4.13;100.00;98227.25;5097855;28;20135;-78
2023/01/16 07:50:31;;;;;;;;;;;;;;;4.14;100.00;98217.72;5092527;28;19914;-78
2023/01/16 07:52:56;;;;;;;;;;;;;;;4.11;100.00;98216.13;5089495;28;19925;-78
2023/01/16 07:55:22;;;;;;;;;;;;;;;4.11;100.00;98210.97;5087245;28;19912;-78
2023/01/16 07:57:48;;;;;;;;;;;;;;;4.11;100.00;98210.97;5083737;28;20234;-78
2023/01/16 08:00:13;;;;;;;;;;;;;;;4.11;100.00;98200.59;5088447;28;19920;-78
2023/01/16 08:02:39;;;;;;;;;;;;;;;4.14;100.00;98189.22;5098166;28;19929;-78
2023/01/16 08:05:05;;;;;;;;;;;;;;;4.16;100.00;98189.97;5091695;28;19916;-78
2023/01/16 08:07:30;;;;;;;;;;;;;;;4.16;100.00;98188.19;5087122;28;19934;-78
2023/01/16 08:09:55;;;;;;;;;;;;;;;4.19;100.00;98184.63;5082137;28;20139;-78
2023/01/16 08:12:20;;;;;;;;;;;;;;;4.23;100.00;98170.56;5092348;28;19936;-78
2023/01/16 08:14:46;;;;;;;;;;;;;;;4.29;100.00;98174.56;5088985;28;19940;-78
2023/01/16 08:17:11;;;;;;;;;;;;;;;4.36;100.00;98176.69;5083606;28;19920;-78
2023/01/16 08:19:36;;;;;;;;;;;;;;;4.38;100.00;98159.31;5087783;28;20263;-78
2023/01/16 08:22:02;;;;;;;;;;;;;;;4.41;100.00;98150.53;5086591;28;19912;-78
2023/01/16 08:24:27;;;;;;;;;;;;;;;4.42;100.00;98154.78;5088200;28;19935;-78
2023/01/16 08:26:53;;;;;;;;;;;;;;;4.46;100.00;98147.66;5090047;28;19973;-78
2023/01/16 08:29:18;;;;;;;;;;;;;;;4.50;100.00;98147.41;5084407;28;19920;-79
2023/01/16 08:31:43;;;;;;;;;;;;;;;4.54;100.00;98145.47;5084269;28;19919;-78
2023/01/16 08:34:09;;;;;;;;;;;;;;;4.56;100.00;98133.25;5083360;28;20200;-78
2023/01/16 08:36:34;;;;;;;;;;;;;;;4.58;100.00;98132.25;5095804;28;20148;-78
2023/01/16 08:39:00;;;;;;;;;;;;;;;4.63;100.00;98131.13;5093289;28;20004;-78
2023/01/16 08:52:24;;;;;;;;;;;;;;;4.75;100.00;98102.69;5089065;28;19931;-78
2023/01/16 08:54:49;;;;;;;;;;;;;;;4.74;100.00;98093.25;5095725;28;19916;-78
2023/01/16 08:57:14;;;;;;;;;;;;;;;4.73;100.00;98091.59;5101104;28;20005;-78
2023/01/16 08:59:39;;;;;;;;;;;;;;;4.69;100.00;98082.31;5093566;28;19912;-78
2023/01/16 09:02:07;;;;;;;;;;;;;;;4.70;100.00;98078.81;5078242;28;19916;-78
2023/01/16 09:04:34;;;;;;;;;;;;;;;4.72;100.00;98076.94;5100169;28;19915;-78
2023/01/16 09:06:59;;;;;;;;;;;;;;;4.73;100.00;98070.00;5094754;28;19920;-78
2023/01/16 09:09:25;;;;;;;;;;;;;;;4.74;100.00;98062.13;5100923;28;19916;-78
2023/01/16 09:14:37;;;;;;;;;;;;;;;4.81;100.00;98062.59;5100867;28;19914;-78
2023/01/16 09:17:03;;;;;;;;;;;;;;;4.83;100.00;98063.34;5100057;28;20194;-78
2023/01/16 09:19:28;;;;;;;;;;;;;;;4.87;100.00;98056.19;5095930;28;19950;-78
2023/01/16 09:21:53;;;;;;;;;;;;;;;4.89;100.00;98046.56;5100059;28;19927;-78
2023/01/16 09:24:18;;;;;;;;;;;;;;;4.91;100.00;98047.28;5093205;28;19923;-78
2023/01/16 09:26:44;;;;;;;;;;;;;;;4.93;100.00;98046.28;5099130;28;20107;-78
2023/01/16 09:29:09;;;;;;;;;;;;;;;4.96;100.00;98042.66;5098516;28;20018;-78
2023/01/16 09:31:34;;;;;;;;;;;;;;;4.98;100.00;98041.66;5099848;28;19920;-78
2023/01/16 09:34:00;;;;;;;;;;;;;;;5.00;100.00;98029.41;5093642;28;20178;-78
2023/01/16 09:36:25;;;;;;;;;;;;;;;5.03;100.00;98025.78;5098695;28;19916;-78
2023/01/16 09:38:50;;;;;;;;;;;;;;;5.04;100.00;98029.19;5098181;28;19970;-78
2023/01/16 09:43:35;;;;;;;;;;;;;;;5.05;100.00;98021.34;5098872;28;19931;-78
2023/01/16 09:44:03;;;;;;;;;;;;;;;5.07;100.00;98019.47;5096892;28;19920;-78
2023/01/16 09:46:30;;;;;;;;;;;;;;;5.08;100.00;98007.34;5098759;28;20107;-78
2023/01/16 09:49:12;;;;;;;;;;;;;;;5.08;100.00;98010.78;5087865;28;19921;-78
2023/01/16 09:51:39;;;;;;;;;;;;;;;5.09;100.00;98011.59;5100238;28;19916;-78
2023/01/16 09:59:57;;;;;;;;;;;;;;;5.14;100.00;97996.56;5089821;28;19924;-78
2023/01/16 10:02:26;;;;;;;;;;;;;;;5.15;100.00;97993.88;5094527;28;19912;-78
2023/01/16 10:04:53;;;;;;;;;;;;;;;5.16;100.00;97995.53;5099695;28;19927;-78
2023/01/16 10:07:36;;;;;;;;;;;;;;;5.16;100.00;97992.94;5096981;28;19927;-78
2023/01/16 10:10:20;;;;;;;;;;;;;;;5.18;100.00;97982.47;5100280;28;20286;-78
2023/01/16 10:12:54;;;;;;;;;;;;;;;5.18;100.00;97977.28;5099801;28;20188;-78
2023/01/16 10:15:22;;;;;;;;;;;;;;;5.22;100.00;97975.31;5100644;28;20228;-78
2023/01/16 10:17:50;;;;;;;;;;;;;;;5.22;100.00;97967.53;5099822;28;20249;-78
2023/01/16 10:20:21;;;;;;;;;;;;;;;5.23;100.00;97971.81;5100233;28;19908;-78
2023/01/16 10:22:49;;;;;;;;;;;;;;;5.24;100.00;97966.53;5100004;28;19916;-78
2023/01/16 10:25:53;;;;;;;;;;;;;;;5.25;100.00;97962.16;5095888;28;19975;-78
2023/01/16 10:28:46;;;;;;;;;;;;;;;5.27;100.00;97957.69;5015538;28;19916;-78
2023/01/16 10:31:14;;;;;;;;;;;;;;;5.29;100.00;97953.22;5017752;28;20236;-78
2023/01/16 10:33:53;;;;;;;;;;;;;;;5.30;100.00;97945.34;5072266;28;19951;-78
2023/01/16 10:36:20;;;;;;;;;;;;;;;5.31;100.00;97941.84;5097284;28;20213;-78
2023/01/16 10:38:54;;;;;;;;;;;;;;;5.32;100.00;97946.09;5095477;28;19962;-78
2023/01/16 10:50:07;;;;;;;;;;;;;;;5.37;100.00;97922.44;5099949;28;20108;-79
2023/01/16 10:52:33;;;;;;;;;;;;;;;5.36;100.00;97916.41;5096317;28;19919;-78
2023/01/16 10:54:59;;;;;;;;;;;;;;;5.37;100.00;97914.66;5099647;28;19958;-78
2023/01/16 10:57:24;;;;;;;;;;;;;;;5.38;100.00;97911.97;5099454;28;19962;-78
2023/01/16 10:59:52;;;;;;;;;;;;;;;5.40;100.00;97919.63;5099209;28;19987;-78
2023/01/16 11:02:27;;;;;;;;;;;;;;;5.41;100.00;97912.69;5099191;28;19916;-78
2023/01/16 11:04:53;;;;;;;;;;;;;;;5.42;100.00;97907.41;5097533;28;19951;-78
2023/01/16 11:07:19;;;;;;;;;;;;;;;5.43;100.00;97898.66;5097714;28;19924;-78
2023/01/16 11:09:45;;;;;;;;;;;;;;;5.44;100.00;97900.34;5092459;28;19916;-78
2023/01/16 11:20:38;;;;;;;;;;;;;;;5.49;100.00;97880.06;5095855;28;19959;-78
2023/01/16 11:23:18;;;;;;;;;;;;;;;5.51;100.00;97877.38;5088819;28;19920;-78
2023/01/16 11:25:45;;;;;;;;;;;;;;;5.52;100.00;97866.91;5088641;28;19912;-78
2023/01/16 11:28:13;;;;;;;;;;;;;;;5.54;100.00;97865.03;5090445;28;19916;-78
2023/01/16 11:30:40;;;;;;;;;;;;;;;5.55;100.00;97866.69;5086694;28;19916;-78
2023/01/16 11:33:11;;;;;;;;;;;;;;;5.57;100.00;97857.03;5090046;28;19920;-78
2023/01/16 11:35:36;;;;;;;;;;;;;;;5.59;100.00;97856.94;5089496;28;19916;-78
2023/01/16 11:38:02;;;;;;;;;;;;;;;5.61;100.00;97855.06;5087047;28;20026;-78
2023/01/16 11:40:29;;;;;;;;;;;;;;;5.63;100.00;97850.59;5089506;28;19920;-78
2023/01/16 11:48:25;;;;;;;;;;;;;;;5.70;100.00;97851.84;5098248;28;19930;-78
2023/01/16 11:50:55;;;;;;;;;;;;;;;5.71;100.00;97839.69;5098447;28;20259;-78
2023/01/16 11:53:20;;;;;;;;;;;;;;;5.72;100.00;97838.75;5099076;28;19907;-79
2023/01/16 11:55:48;;;;;;;;;;;;;;;5.73;100.00;97828.28;5098251;28;20253;-78
2023/01/16 11:58:24;;;;;;;;;;;;;;;5.75;100.00;97830.75;5098574;28;19908;-78
2023/01/16 12:00:58;;;;;;;;;;;;;;;5.77;100.00;97831.50;5097023;28;19916;-78
2023/01/16 12:03:47;;;;;;;;;;;;;;;5.79;100.00;97824.41;5082826;28;20211;-78
2023/01/16 12:06:25;;;;;;;;;;;;;;;5.82;100.00;97829.41;5098681;28;19982;-78
2023/01/16 12:09:04;;;;;;;;;;;;;;;5.84;100.00;97824.09;5097924;28;20227;-78
2023/01/16 12:11:41;;;;;;;;;;;;;;;5.86;100.00;97820.47;5084761;28;19915;-78
2023/01/16 12:14:21;;;;;;;;;;;;;;;5.87;100.00;97814.31;5098341;28;19924;-78
2023/01/16 12:16:49;;;;;;;;;;;;;;;5.87;100.00;97809.13;5097821;28;20206;-78
2023/01/16 12:19:14;;;;;;;;;;;;;;;5.89;100.00;97801.22;5098159;28;19908;-79
2023/01/16 12:21:51;;;;;;;;;;;;;;;5.90;100.00;97801.13;5096588;28;19930;-78
2023/01/16 12:24:28;;;;;;;;;;;;;;;5.92;100.00;97799.25;5097870;28;19908;-78
2023/01/16 12:27:13;;;;;;;;;;;;;;;5.93;100.00;97789.66;5094773;28;19987;-78
2023/01/16 12:29:46;;;;;;;;;;;;;;;5.96;100.00;97784.31;5087627;28;19917;-78
2023/01/16 12:32:29;;;;;;;;;;;;;;;5.96;100.00;97790.31;5091837;28;19954;-78
2023/01/16 12:35:02;;;;;;;;;;;;;;;5.99;100.00;97780.69;5089805;28;19920;-78
2023/01/16 12:37:46;;;;;;;;;;;;;;;5.99;100.00;97778.06;5088501;28;19927;-78
2023/01/16 12:40:23;;;;;;;;;;;;;;;5.99;100.00;97776.31;5086670;28;19987;-78
2023/01/16 12:45:47;;;;;;;;;;;;;;;6.03;100.00;97769.13;5088418;28;19923;-78
2023/01/16 12:48:18;;;;;;;;;;;;;;;6.03;100.00;97771.72;5089730;28;19983;-78
2023/01/16 12:50:49;;;;;;;;;;;;;;;6.05;100.00;97767.25;5087910;28;19939;-78
2023/01/16 12:53:33;;;;;;;;;;;;;;;6.08;100.00;97761.84;5092635;28;20103;-78
2023/01/16 12:56:13;;;;;;;;;;;;;;;6.08;100.00;97765.25;5088718;28;19923;-78
2023/01/16 12:58:43;;;;;;;;;;;;;;;6.09;100.00;97756.53;5089229;28;20131;-78
2023/01/16 13:01:14;;;;;;;;;;;;;;;6.11;100.00;97759.00;5088724;28;20105;-78
2023/01/16 13:03:43;;;;;;;;;;;;;;;6.10;100.00;97752.97;5087323;28;19915;-79
2023/01/16 13:06:11;;;;;;;;;;;;;;;6.12;100.00;97745.09;5089286;28;19930;-80
2023/01/16 13:08:40;;;;;;;;;;;;;;;6.12;100.00;97743.31;5083889;28;19920;-78
2023/01/16 13:14:10;;;;;;;;;;;;;;;6.14;100.00;97740.59;5089281;28;19924;-78
2023/01/16 13:16:35;;;;;;;;;;;;;;;6.15;100.00;97742.28;5084361;28;19924;-78
2023/01/16 13:19:19;;;;;;;;;;;;;;;6.16;100.00;97730.91;5089681;28;19916;-78
2023/01/16 13:21:55;;;;;;;;;;;;;;;6.16;100.00;97730.91;5097092;28;19923;-78
2023/01/16 13:24:35;;;;;;;;;;;;;;;6.16;100.00;97728.31;5097143;28;20175;-78
2023/01/16 13:27:02;;;;;;;;;;;;;;;6.18;100.00;97725.63;5081648;28;19916;-78
2023/01/16 13:29:37;;;;;;;;;;;;;;;6.18;100.00;97726.44;5097449;28;19916;-78
2023/01/16 13:32:18;;;;;;;;;;;;;;;6.19;100.00;97724.69;5097121;28;19916;-78
2023/01/16 13:34:46;;;;;;;;;;;;;;;6.19;100.00;97727.28;5095657;28;20344;-78
2023/01/16 13:37:18;;;;;;;;;;;;;;;6.20;100.00;97723.72;5097320;28;20219;-78
2023/01/16 13:39:43;;;;;;;;;;;;;;;6.21;100.00;97723.63;5096492;28;19916;-78
2023/01/16 13:42:10;;;;;;;;;;;;;;;6.21;100.00;97718.44;5097323;28;19916;-78
2023/01/16 13:47:28;;;;;;;;;;;;;;;6.23;100.00;97723.53;5086441;28;19926;-78
2023/01/16 13:49:54;;;;;;;;;;;;;;;6.23;100.00;97720.91;5100336;28;19916;-78
2023/01/16 13:52:21;;;;;;;;;;;;;;;6.24;100.00;97725.16;5100337;28;19916;-78
2023/01/16 13:54:48;;;;;;;;;;;;;;;6.24;100.00;97726.00;5101383;28;19923;-79
2023/01/16 13:57:21;;;;;;;;;;;;;;;6.25;100.00;97713.84;5100968;28;19991;-78
2023/01/16 13:59:49;;;;;;;;;;;;;;;6.26;100.00;97720.72;5100358;28;19961;-78
2023/01/16 14:02:47;;;;;;;;;;;;;;;6.26;100.00;97707.72;5100637;28;19916;-78